ULAA

Talagi Airport

Archangelsk, Russian Federation
TAF ULAA 200800Z 2009/2109 10003MPS 3100 -SN BR BKN005 TEMPO 2009/2109 06003MPS 0500 +SHSN FZFG BKN002 BKN011CB
Issued Valid From Valid To
Jan-20 @ 08:00 UTC
(3 hours ago)
Jan-20 @ 09:00 UTC
(2 hours ago)
Jan-21 @ 09:00 UTC
(in 22 hours)
Jan-20 @ 09:00 to Jan-21 @ 09:00
TAF ULAA 200800Z 2009/2109 10003MPS 3100 -SN BR BKN005
Wind Visibility Clouds Conditions
100° at 6 knots 3,106 meters
  • Broken at 500' AGL
  • Light Snow
  • Mist
Temporary Jan-20 @ 09:00 to Jan-21 @ 09:00
TEMPO 2009/2109 06003MPS 0500 +SHSN FZFG BKN002 BKN011CB
Wind Visibility Clouds Conditions
60° at 6 knots 499 meters
  • Broken at 200' AGL
  • Broken at 1,100' AGL
  • Heavy Snow
  • Freezing
  • Fog
TAF ULAA 200800Z 2009/2109 10003MPS 3100 -SN BR BKN005 TEMPO 2009/2109 06003MPS 0500 +SHSN FZFG BKN002 BKN011CB
Issued Jan-20 @ 08:00 UTC
(3 hours ago)
Valid From Jan-20 @ 09:00 UTC
(2 hours ago)
Valid To Jan-21 @ 09:00 UTC
(in 22 hours)
Jan-20 @ 09:00 - Jan-21 @ 09:00
Wind Visibility
100° at 6 knots 3,106 meters
Clouds
  • Broken at 500' AGL
Conditions
  • Light Snow
  • Mist
Temporary Jan-20 @ 09:00 - Jan-21 @ 09:00
Wind Visibility
60° at 6 knots 499 meters
Clouds
  • Broken at 200' AGL
  • Broken at 1,100' AGL
Conditions
  • Heavy Snow
  • Freezing
  • Fog